Time,TemperatureF,DewpointF,PressureIn,WindDirection,WindDirectionDegrees,WindSpeedMPH,WindSpeedGustMPH,Humidity,HourlyPrecipIn,Conditions,Clouds,dailyrainin,SoftwareType,DateUTC
2013-09-19 00:01:00,51.7,49.5,30.22,SE,139,0.0,0.0,92,0.00,,CLR,0.00,VWS V14.01,2013-09-19 04:01:00,
2013-09-19 00:02:00,51.6,49.4,30.22,SE,139,0.0,0.0,92,0.00,,CLR,0.00,VWS V14.01,2013-09-19 04:02:00,
2013-09-19 00:07:00,51.4,49.5,30.22,SE,139,0.0,0.0,93,0.00,,CLR,0.00,VWS V14.01,2013-09-19 04:07:00,
2013-09-19 00:10:00,51.3,49.3,30.22,SE,139,0.0,0.0,93,0.00,,CLR,0.00,VWS V14.01,2013-09-19 04:10:00,
2013-09-19 00:15:00,51.1,49.2,30.22,SE,139,0.0,0.0,93,0.00,,CLR,0.00,VWS V14.01,2013-09-19 04:15:00,
2013-09-19 00:20:00,50.9,49.0,30.22,SE,139,0.0,0.0,93,0.00,,CLR,0.00,VWS V14.01,2013-09-19 04:20:00,
2013-09-19 00:25:00,50.8,48.8,30.22,SE,139,0.0,0.0,93,0.00,,CLR,0.00,VWS V14.01,2013-09-19 04:25:00,
2013-09-19 00:30:00,50.6,48.7,30.22,SE,139,0.0,0.0,93,0.00,,CLR,0.00,VWS V14.01,2013-09-19 04:30:00,
2013-09-19 00:35:00,50.5,48.6,30.22,SE,139,0.0,0.0,93,0.00,,CLR,0.00,VWS V14.01,2013-09-19 04:35:00,
2013-09-19 00:40:00,50.3,48.6,30.23,SE,139,0.0,0.0,94,0.00,,CLR,0.00,VWS V14.01,2013-09-19 04:40:00,
2013-09-19 00:45:00,50.2,48.5,30.22,SE,139,0.0,0.0,94,0.00,,CLR,0.00,VWS V14.01,2013-09-19 04:45:00,
2013-09-19 00:50:00,50.1,48.4,30.22,SE,139,0.0,0.0,94,0.00,,CLR,0.00,VWS V14.01,2013-09-19 04:50:00,
2013-09-19 00:55:00,50.1,48.4,30.22,SE,139,0.0,0.0,94,0.00,,CLR,0.00,VWS V14.01,2013-09-19 04:55:00,
2013-09-19 01:00:00,50.1,48.7,30.22,SE,139,0.0,0.0,95,0.00,,,0.00,VWS V14.01,2013-09-19 05:00:00,
2013-09-19 01:05:00,50.0,48.6,30.22,SE,139,0.0,0.0,95,0.00,,,0.00,VWS V14.01,2013-09-19 05:05:00,
2013-09-19 01:10:00,50.0,48.6,30.22,SE,139,0.0,0.0,95,0.00,,,0.00,VWS V14.01,2013-09-19 05:10:00,
2013-09-19 01:15:00,49.9,48.5,30.22,SE,139,0.0,0.0,95,0.00,,,0.00,VWS V14.01,2013-09-19 05:15:00,
2013-09-19 01:20:00,49.8,48.4,30.22,SE,139,0.0,0.0,95,0.00,,,0.00,VWS V14.01,2013-09-19 05:20:00,
2013-09-19 01:25:00,49.7,48.0,30.22,SE,139,0.0,0.0,94,0.00,,,0.00,VWS V14.01,2013-09-19 05:25:00,
2013-09-19 01:30:00,49.6,48.0,30.22,SE,139,0.0,0.0,94,0.00,,,0.00,VWS V14.01,2013-09-19 05:30:00,
2013-09-19 01:35:00,49.4,47.8,30.22,SE,139,0.0,0.0,94,0.00,,,0.00,VWS V14.01,2013-09-19 05:35:00,
2013-09-19 01:40:00,49.2,47.5,30.22,SE,139,0.0,0.0,94,0.00,,,0.00,VWS V14.01,2013-09-19 05:40:00,
2013-09-19 01:45:00,48.9,47.2,30.22,SE,139,0.0,0.0,94,0.00,,,0.00,VWS V14.01,2013-09-19 05:45:00,
2013-09-19 01:50:00,48.7,47.0,30.22,SE,139,0.0,0.0,94,0.00,,,0.00,VWS V14.01,2013-09-19 05:50:00,
2013-09-19 01:56:00,48.5,46.9,30.22,SE,139,0.0,0.0,94,0.00,,,0.00,VWS V14.01,2013-09-19 05:56:00,
2013-09-19 02:01:00,48.3,46.7,30.22,SE,139,0.0,0.0,94,0.00,,CLR,0.00,VWS V14.01,2013-09-19 06:01:00,
2013-09-19 02:06:00,48.2,46.6,30.22,SE,139,0.0,0.0,94,0.00,,CLR,0.00,VWS V14.01,2013-09-19 06:06:00,
2013-09-19 02:11:00,48.0,46.4,30.22,SE,139,0.0,0.0,94,0.00,,CLR,0.00,VWS V14.01,2013-09-19 06:11:00,
2013-09-19 02:16:00,47.8,46.2,30.22,SE,139,0.0,0.0,94,0.00,,CLR,0.00,VWS V14.01,2013-09-19 06:16:00,
2013-09-19 02:21:00,47.7,46.1,30.22,SE,139,0.0,0.0,94,0.00,,CLR,0.00,VWS V14.01,2013-09-19 06:21:00,
2013-09-19 02:26:00,47.6,46.2,30.21,SE,139,0.0,0.0,95,0.00,,CLR,0.00,VWS V14.01,2013-09-19 06:26:00,
2013-09-19 02:31:00,47.4,46.0,30.22,SE,139,0.0,0.0,95,0.00,,CLR,0.00,VWS V14.01,2013-09-19 06:31:00,
2013-09-19 02:36:00,47.3,45.7,30.21,SE,139,0.0,0.0,94,0.00,,CLR,0.00,VWS V14.01,2013-09-19 06:36:00,
2013-09-19 02:41:00,47.2,45.8,30.21,SE,139,0.0,0.0,95,0.00,,CLR,0.00,VWS V14.01,2013-09-19 06:41:00,
2013-09-19 02:46:00,47.1,45.7,30.21,SE,139,0.0,0.0,95,0.00,,CLR,0.00,VWS V14.01,2013-09-19 06:46:00,
2013-09-19 02:51:00,47.0,45.7,30.21,SE,139,0.0,0.0,95,0.00,,CLR,0.00,VWS V14.01,2013-09-19 06:51:00,
2013-09-19 02:56:00,46.9,45.5,30.21,SE,139,0.0,0.0,95,0.00,,CLR,0.00,VWS V14.01,2013-09-19 06:56:00,
2013-09-19 03:01:00,46.8,45.5,30.21,SE,139,0.0,0.0,95,0.00,,CLR,0.00,VWS V14.01,2013-09-19 07:01:00,
2013-09-19 03:06:00,46.7,45.3,30.21,SE,139,0.0,0.0,95,0.00,,CLR,0.00,VWS V14.01,2013-09-19 07:06:00,
2013-09-19 03:11:00,46.6,45.2,30.21,SE,139,0.0,0.0,95,0.00,,CLR,0.00,VWS V14.01,2013-09-19 07:11:00,
2013-09-19 03:16:00,46.5,45.2,30.21,SE,139,0.0,0.0,95,0.00,,CLR,0.00,VWS V14.01,2013-09-19 07:16:00,
2013-09-19 03:21:00,46.4,45.0,30.20,SE,139,0.0,0.0,95,0.00,,CLR,0.00,VWS V14.01,2013-09-19 07:21:00,
2013-09-19 03:26:00,46.3,45.0,30.20,SE,139,0.0,0.0,95,0.00,,CLR,0.00,VWS V14.01,2013-09-19 07:26:00,
2013-09-19 03:31:00,46.2,44.8,30.20,SE,139,0.0,0.0,95,0.00,,CLR,0.00,VWS V14.01,2013-09-19 07:31:00,
2013-09-19 03:36:00,46.1,44.8,30.20,SE,139,0.0,0.0,95,0.00,,CLR,0.00,VWS V14.01,2013-09-19 07:36:00,
2013-09-19 03:41:00,46.0,44.7,30.20,SE,139,0.0,0.0,95,0.00,,FEW002,0.00,VWS V14.01,2013-09-19 07:41:00,
2013-09-19 03:46:00,45.9,44.5,30.20,SE,139,0.0,0.0,95,0.00,,FEW002,0.00,VWS V14.01,2013-09-19 07:46:00,
2013-09-19 03:51:00,45.9,44.5,30.20,SE,139,0.0,0.0,95,0.00,,FEW002,0.00,VWS V14.01,2013-09-19 07:51:00,
2013-09-19 03:56:00,45.8,44.5,30.20,SE,139,0.0,0.0,95,0.00,,FEW002,0.00,VWS V14.01,2013-09-19 07:56:00,
2013-09-19 04:01:00,45.7,44.3,30.20,SE,139,0.0,0.0,95,0.00,,CLR,0.00,VWS V14.01,2013-09-19 08:01:00,
2013-09-19 04:06:00,45.6,44.2,30.20,SE,139,0.0,0.0,95,0.00,,CLR,0.00,VWS V14.01,2013-09-19 08:06:00,
2013-09-19 04:11:00,45.6,44.2,30.20,SE,139,0.0,0.0,95,0.00,,CLR,0.00,VWS V14.01,2013-09-19 08:11:00,
2013-09-19 04:16:00,45.5,44.2,30.20,SE,139,0.0,0.0,95,0.00,,CLR,0.00,VWS V14.01,2013-09-19 08:16:00,
2013-09-19 04:21:00,45.4,44.0,30.20,SE,139,0.0,0.0,95,0.00,,CLR,0.00,VWS V14.01,2013-09-19 08:21:00,
2013-09-19 04:26:00,45.3,44.0,30.20,SE,139,0.0,0.0,95,0.00,,CLR,0.00,VWS V14.01,2013-09-19 08:26:00,
2013-09-19 04:31:00,45.2,43.9,30.20,SE,139,0.0,0.0,95,0.00,,CLR,0.00,VWS V14.01,2013-09-19 08:31:00,
2013-09-19 04:36:00,45.1,43.8,30.20,SE,139,0.0,0.0,95,0.00,,CLR,0.00,VWS V14.01,2013-09-19 08:36:00,
2013-09-19 04:42:00,45.1,44.0,30.21,SE,139,0.0,0.0,96,0.00,,CLR,0.00,VWS V14.01,2013-09-19 08:42:00,
2013-09-19 04:47:00,45.1,44.0,30.21,SE,139,0.0,0.0,96,0.00,,CLR,0.00,VWS V14.01,2013-09-19 08:47:00,
2013-09-19 04:52:00,45.0,43.9,30.20,SE,139,0.0,0.0,96,0.00,,CLR,0.00,VWS V14.01,2013-09-19 08:52:00,
2013-09-19 04:57:00,45.0,43.9,30.20,SE,139,0.0,0.0,96,0.00,,CLR,0.00,VWS V14.01,2013-09-19 08:57:00,
2013-09-19 05:02:00,45.0,43.9,30.20,SE,139,0.0,0.0,96,0.00,,CLR,0.00,VWS V14.01,2013-09-19 09:02:00,
2013-09-19 05:07:00,45.0,43.9,30.20,SE,139,0.0,0.0,96,0.00,,,0.00,VWS V14.01,2013-09-19 09:07:00,
2013-09-19 05:12:00,44.9,43.8,30.20,SE,139,0.0,0.0,96,0.00,,,0.00,VWS V14.01,2013-09-19 09:12:00,
2013-09-19 05:17:00,44.9,43.8,30.20,SE,139,0.0,0.0,96,0.00,,,0.00,VWS V14.01,2013-09-19 09:17:00,
2013-09-19 05:22:00,44.9,43.8,30.20,SE,139,0.0,0.0,96,0.00,,,0.00,VWS V14.01,2013-09-19 09:22:00,
2013-09-19 05:27:00,44.8,43.7,30.20,SE,139,0.0,0.0,96,0.00,,,0.00,VWS V14.01,2013-09-19 09:27:00,
2013-09-19 05:32:00,44.8,43.7,30.20,SE,139,0.0,0.0,96,0.00,,,0.00,VWS V14.01,2013-09-19 09:32:00,
2013-09-19 05:37:00,44.8,43.7,30.20,SE,139,0.0,0.0,96,0.00,,,0.00,VWS V14.01,2013-09-19 09:37:00,
2013-09-19 05:42:00,44.8,43.7,30.20,SE,139,0.0,0.0,96,0.00,,,0.00,VWS V14.01,2013-09-19 09:42:00,
2013-09-19 05:47:00,44.8,43.7,30.21,SE,139,0.0,0.0,96,0.00,,,0.00,VWS V14.01,2013-09-19 09:47:00,
2013-09-19 05:52:00,44.7,43.6,30.21,SE,139,0.0,0.0,96,0.00,,,0.00,VWS V14.01,2013-09-19 09:52:00,
2013-09-19 05:57:00,44.8,43.7,30.20,SE,139,0.0,0.0,96,0.00,,,0.00,VWS V14.01,2013-09-19 09:57:00,
2013-09-19 06:02:00,44.8,43.7,30.20,SE,139,0.0,0.0,96,0.00,,CLR,0.00,VWS V14.01,2013-09-19 10:02:00,
2013-09-19 06:07:00,44.8,43.7,30.20,SE,139,0.0,0.0,96,0.00,,CLR,0.00,VWS V14.01,2013-09-19 10:07:00,
2013-09-19 06:12:00,44.9,43.8,30.20,SE,140,0.0,0.0,96,0.00,,CLR,0.00,VWS V14.01,2013-09-19 10:12:00,
2013-09-19 06:17:00,44.9,43.8,30.20,SE,140,0.0,0.0,96,0.00,,CLR,0.00,VWS V14.01,2013-09-19 10:17:00,
2013-09-19 06:22:00,45.0,44.2,30.20,SE,140,0.0,0.0,97,0.00,,CLR,0.00,VWS V14.01,2013-09-19 10:22:00,
2013-09-19 06:27:00,45.0,44.2,30.20,SE,140,0.0,0.0,97,0.00,,CLR,0.00,VWS V14.01,2013-09-19 10:27:00,
2013-09-19 06:32:00,45.0,43.9,30.20,SE,140,0.0,0.0,96,0.00,,CLR,0.00,VWS V14.01,2013-09-19 10:32:00,
2013-09-19 06:37:00,45.1,44.0,30.20,SE,140,0.0,0.0,96,0.00,,CLR,0.00,VWS V14.01,2013-09-19 10:37:00,
2013-09-19 06:42:00,45.1,44.0,30.21,SE,140,0.0,0.0,96,0.00,,CLR,0.00,VWS V14.01,2013-09-19 10:42:00,
2013-09-19 06:47:00,45.0,43.9,30.21,SE,140,0.0,0.0,96,0.00,,CLR,0.00,VWS V14.01,2013-09-19 10:47:00,
2013-09-19 06:52:00,45.0,43.9,30.21,SE,140,0.0,0.0,96,0.00,,CLR,0.00,VWS V14.01,2013-09-19 10:52:00,
2013-09-19 06:57:00,45.0,43.9,30.21,SE,140,0.0,0.0,96,0.00,,CLR,0.00,VWS V14.01,2013-09-19 10:57:00,
2013-09-19 07:02:00,45.0,43.9,30.21,SE,140,0.0,0.0,96,0.00,,CLR,0.00,VWS V14.01,2013-09-19 11:02:00,
2013-09-19 07:07:00,45.0,43.9,30.21,SE,140,0.0,0.0,96,0.00,,CLR,0.00,VWS V14.01,2013-09-19 11:07:00,
2013-09-19 07:12:00,45.0,44.2,30.21,SE,140,0.0,0.0,97,0.00,,CLR,0.00,VWS V14.01,2013-09-19 11:12:00,
2013-09-19 07:17:00,45.0,44.2,30.21,SE,140,0.0,0.0,97,0.00,,CLR,0.00,VWS V14.01,2013-09-19 11:17:00,
2013-09-19 07:22:00,45.1,44.3,30.21,SE,140,0.0,0.0,97,0.00,,CLR,0.00,VWS V14.01,2013-09-19 11:22:00,
2013-09-19 07:27:00,45.4,44.6,30.21,SE,140,0.0,0.0,97,0.00,,CLR,0.00,VWS V14.01,2013-09-19 11:27:00,
2013-09-19 07:32:00,45.6,44.8,30.21,SE,140,0.0,0.0,97,0.00,,CLR,0.00,VWS V14.01,2013-09-19 11:32:00,
2013-09-19 07:37:00,45.9,45.1,30.21,SE,140,0.0,0.0,97,0.00,,CLR,0.00,VWS V14.01,2013-09-19 11:37:00,
2013-09-19 07:42:00,46.2,45.7,30.21,SE,140,0.0,0.0,98,0.00,,CLR,0.00,VWS V14.01,2013-09-19 11:42:00,
2013-09-19 07:47:00,46.8,46.3,30.21,SE,140,0.0,0.0,98,0.00,,CLR,0.00,VWS V14.01,2013-09-19 11:47:00,
2013-09-19 07:52:00,47.2,46.7,30.21,SE,140,0.0,0.0,98,0.00,,CLR,0.00,VWS V14.01,2013-09-19 11:52:00,
2013-09-19 07:57:00,47.6,47.1,30.21,SE,140,0.0,0.0,98,0.00,,CLR,0.00,VWS V14.01,2013-09-19 11:57:00,
2013-09-19 08:02:00,48.2,47.7,30.21,SE,140,0.0,0.0,98,0.00,,CLR,0.00,VWS V14.01,2013-09-19 12:02:00,
2013-09-19 08:07:00,48.7,48.2,30.21,SE,140,0.0,0.0,98,0.00,,CLR,0.00,VWS V14.01,2013-09-19 12:07:00,
2013-09-19 08:12:00,49.0,48.5,30.21,SE,140,0.0,0.0,98,0.00,,CLR,0.00,VWS V14.01,2013-09-19 12:12:00,
2013-09-19 08:17:00,49.4,48.9,30.21,SE,140,0.0,0.0,98,0.00,,CLR,0.00,VWS V14.01,2013-09-19 12:17:00,
2013-09-19 08:22:00,49.9,49.4,30.21,SE,140,0.0,0.0,98,0.00,,CLR,0.00,VWS V14.01,2013-09-19 12:22:00,
2013-09-19 08:27:00,50.4,49.9,30.21,SE,140,0.0,0.0,98,0.00,,CLR,0.00,VWS V14.01,2013-09-19 12:27:00,
2013-09-19 08:32:00,50.9,50.4,30.21,SE,140,0.0,0.0,98,0.00,,CLR,0.00,VWS V14.01,2013-09-19 12:32:00,
2013-09-19 08:38:00,51.4,50.9,30.21,SE,140,0.0,0.0,98,0.00,,CLR,0.00,VWS V14.01,2013-09-19 12:38:00,
2013-09-19 08:43:00,52.1,51.5,30.21,SE,140,0.0,0.0,98,0.00,,CLR,0.00,VWS V14.01,2013-09-19 12:43:00,
2013-09-19 08:48:00,53.0,52.7,30.20,SE,140,0.0,0.0,99,0.00,,CLR,0.00,VWS V14.01,2013-09-19 12:48:00,
2013-09-19 08:53:00,54.3,54.0,30.21,SE,140,0.0,0.0,99,0.00,,CLR,0.00,VWS V14.01,2013-09-19 12:53:00,
2013-09-19 08:58:00,55.6,55.0,30.20,SE,135,0.0,0.0,98,0.00,,CLR,0.00,VWS V14.01,2013-09-19 12:58:00,
2013-09-19 09:03:00,56.7,55.9,30.20,SE,135,0.0,0.0,97,0.00,,CLR,0.00,VWS V14.01,2013-09-19 13:03:00,
2013-09-19 09:08:00,57.9,55.9,30.20,SE,135,0.0,0.0,93,0.00,,CLR,0.00,VWS V14.01,2013-09-19 13:08:00,
2013-09-19 09:13:00,59.1,56.5,30.21,SE,135,0.0,0.0,91,0.00,,CLR,0.00,VWS V14.01,2013-09-19 13:13:00,
2013-09-19 09:18:00,60.2,56.6,30.21,NNW,338,2.0,2.0,88,0.00,,CLR,0.00,VWS V14.01,2013-09-19 13:18:00,
2013-09-19 09:23:00,61.3,55.8,30.20,NNW,330,1.0,4.0,82,0.00,,CLR,0.00,VWS V14.01,2013-09-19 13:23:00,
2013-09-19 09:28:00,62.5,56.2,30.20,WNW,295,0.0,4.0,80,0.00,,CLR,0.00,VWS V14.01,2013-09-19 13:28:00,
2013-09-19 09:33:00,63.3,55.2,30.20,SSE,161,1.0,3.0,75,0.00,,CLR,0.00,VWS V14.01,2013-09-19 13:33:00,
2013-09-19 09:38:00,63.8,55.0,30.20,NW,315,0.0,4.0,73,0.00,,CLR,0.00,VWS V14.01,2013-09-19 13:38:00,
2013-09-19 09:43:00,64.3,54.7,30.20,SW,217,2.0,5.0,71,0.00,,CLR,0.00,VWS V14.01,2013-09-19 13:43:00,
2013-09-19 09:48:00,64.8,55.2,30.20,NW,325,1.0,5.0,71,0.00,,CLR,0.00,VWS V14.01,2013-09-19 13:48:00,
2013-09-19 09:53:00,65.2,54.4,30.20,NW,311,0.0,5.0,68,0.00,,CLR,0.00,VWS V14.01,2013-09-19 13:53:00,
2013-09-19 09:58:00,65.5,54.3,30.20,WSW,247,1.0,5.0,67,0.00,,CLR,0.00,VWS V14.01,2013-09-19 13:58:00,
2013-09-19 10:03:00,65.8,54.1,30.20,WNW,290,0.0,2.0,66,0.00,,,0.00,VWS V14.01,2013-09-19 14:03:00,
2013-09-19 10:08:00,66.5,54.4,30.20,North,5,1.0,5.0,65,0.00,,,0.00,VWS V14.01,2013-09-19 14:08:00,
2013-09-19 10:13:00,67.0,54.0,30.20,West,260,1.0,7.0,63,0.00,,,0.00,VWS V14.01,2013-09-19 14:13:00,
2013-09-19 10:18:00,67.4,54.4,30.20,WSW,250,0.0,7.0,63,0.00,,,0.00,VWS V14.01,2013-09-19 14:18:00,
2013-09-19 10:23:00,67.9,54.0,30.20,NW,319,1.0,7.0,61,0.00,,,0.00,VWS V14.01,2013-09-19 14:23:00,
2013-09-19 10:28:00,68.1,54.2,30.20,WNW,303,2.0,7.0,61,0.00,,,0.00,VWS V14.01,2013-09-19 14:28:00,
2013-09-19 10:33:00,68.5,54.5,30.20,NNW,331,1.0,3.0,61,0.00,,,0.00,VWS V14.01,2013-09-19 14:33:00,
2013-09-19 10:39:00,69.0,54.5,30.19,West,264,1.0,3.0,60,0.00,,,0.00,VWS V14.01,2013-09-19 14:39:00,
2013-09-19 10:44:00,69.1,54.7,30.19,South,186,1.0,3.0,60,0.00,,,0.00,VWS V14.01,2013-09-19 14:44:00,
2013-09-19 10:49:00,69.6,55.1,30.19,South,182,0.0,4.0,60,0.00,,,0.00,VWS V14.01,2013-09-19 14:49:00,
2013-09-19 10:54:00,70.1,55.1,30.19,South,185,1.0,5.0,59,0.00,,,0.00,VWS V14.01,2013-09-19 14:54:00,
2013-09-19 10:59:00,70.5,54.5,30.19,South,175,1.0,5.0,57,0.00,,,0.00,VWS V14.01,2013-09-19 14:59:00,
2013-09-19 11:04:00,70.8,54.3,30.19,NNW,333,1.0,5.0,56,0.00,,CLR,0.00,VWS V14.01,2013-09-19 15:04:00,
2013-09-19 11:09:00,71.6,54.6,30.19,West,261,0.0,5.0,55,0.00,,CLR,0.00,VWS V14.01,2013-09-19 15:09:00,
2013-09-19 11:14:00,71.7,54.2,30.19,NNW,346,2.0,5.0,54,0.00,,CLR,0.00,VWS V14.01,2013-09-19 15:14:00,
2013-09-19 11:19:00,71.9,54.4,30.19,NNW,343,2.0,5.0,54,0.00,,CLR,0.00,VWS V14.01,2013-09-19 15:19:00,
2013-09-19 11:24:00,71.8,53.2,30.19,SW,231,2.0,5.0,52,0.00,,CLR,0.00,VWS V14.01,2013-09-19 15:24:00,
2013-09-19 11:29:00,71.5,53.0,30.19,WSW,254,3.0,5.0,52,0.00,,CLR,0.00,VWS V14.01,2013-09-19 15:29:00,
2013-09-19 11:34:00,71.7,53.2,30.19,SE,146,0.0,2.0,52,0.00,,CLR,0.00,VWS V14.01,2013-09-19 15:34:00,
2013-09-19 11:39:00,71.9,52.3,30.18,South,190,1.0,5.0,50,0.00,,CLR,0.00,VWS V14.01,2013-09-19 15:39:00,
2013-09-19 11:44:00,71.9,51.7,30.19,SW,222,0.0,5.0,49,0.00,,CLR,0.00,VWS V14.01,2013-09-19 15:44:00,
2013-09-19 11:49:00,72.3,51.5,30.19,ESE,111,0.0,5.0,48,0.00,,CLR,0.00,VWS V14.01,2013-09-19 15:49:00,
2013-09-19 11:54:00,73.1,52.3,30.18,NNW,331,0.0,7.0,48,0.00,,CLR,0.00,VWS V14.01,2013-09-19 15:54:00,
2013-09-19 11:59:00,73.9,53.0,30.18,SSW,206,3.0,7.0,48,0.00,,CLR,0.00,VWS V14.01,2013-09-19 15:59:00,
2013-09-19 12:04:00,73.9,52.4,30.18,West,281,6.0,7.0,47,0.00,,CLR,0.00,VWS V14.01,2013-09-19 16:04:00,
2013-09-19 12:09:00,74.3,52.8,30.18,WSW,242,1.0,7.0,47,0.00,,CLR,0.00,VWS V14.01,2013-09-19 16:09:00,
2013-09-19 12:14:00,74.5,53.0,30.18,SW,215,2.0,7.0,47,0.00,,CLR,0.00,VWS V14.01,2013-09-19 16:14:00,
2013-09-19 12:19:00,74.5,52.4,30.18,WNW,300,2.0,7.0,46,0.00,,CLR,0.00,VWS V14.01,2013-09-19 16:19:00,
2013-09-19 12:24:00,74.8,52.7,30.18,West,272,3.0,7.0,46,0.00,,CLR,0.00,VWS V14.01,2013-09-19 16:24:00,
2013-09-19 12:29:00,74.3,52.8,30.18,WNW,288,0.0,0.0,47,0.00,,CLR,0.00,VWS V14.01,2013-09-19 16:29:00,
2013-09-19 12:34:00,73.9,51.8,30.18,NE,49,0.0,4.0,46,0.00,,CLR,0.00,VWS V14.01,2013-09-19 16:34:00,
2013-09-19 12:39:00,74.0,51.9,30.18,NNW,338,3.0,7.0,46,0.00,,CLR,0.00,VWS V14.01,2013-09-19 16:39:00,
2013-09-19 12:44:00,73.9,51.8,30.17,WNW,290,0.0,7.0,46,0.00,,CLR,0.00,VWS V14.01,2013-09-19 16:44:00,
2013-09-19 12:49:00,74.7,52.6,30.17,NNW,329,4.0,8.0,46,0.00,,CLR,0.00,VWS V14.01,2013-09-19 16:49:00,
2013-09-19 12:54:00,75.6,52.8,30.17,NW,317,3.0,9.0,45,0.00,,CLR,0.00,VWS V14.01,2013-09-19 16:54:00,
2013-09-19 12:59:00,75.8,53.0,30.17,NW,318,1.0,3.0,45,0.00,,CLR,0.00,VWS V14.01,2013-09-19 16:59:00,
2013-09-19 13:04:00,75.7,54.1,30.17,NW,312,1.0,5.0,47,0.00,,CLR,0.00,VWS V14.01,2013-09-19 17:04:00,
2013-09-19 13:09:00,75.7,54.6,30.17,WSW,244,3.0,5.0,48,0.00,,CLR,0.00,VWS V14.01,2013-09-19 17:09:00,
2013-09-19 13:14:00,75.1,54.1,30.17,NE,42,2.0,5.0,48,0.00,,CLR,0.00,VWS V14.01,2013-09-19 17:14:00,
2013-09-19 13:20:00,75.6,54.5,30.16,WSW,238,0.0,5.0,48,0.00,,CLR,0.00,VWS V14.01,2013-09-19 17:20:00,
2013-09-19 13:25:00,75.7,55.8,30.16,NNW,328,0.0,5.0,50,0.00,,CLR,0.00,VWS V14.01,2013-09-19 17:25:00,
2013-09-19 13:30:00,75.9,56.5,30.16,SSE,153,1.0,1.0,51,0.00,,CLR,0.00,VWS V14.01,2013-09-19 17:30:00,
2013-09-19 13:35:00,76.1,56.1,30.16,West,260,1.0,5.0,50,0.00,,CLR,0.00,VWS V14.01,2013-09-19 17:35:00,
2013-09-19 13:40:00,76.1,55.6,30.16,SW,219,2.0,7.0,49,0.00,,CLR,0.00,VWS V14.01,2013-09-19 17:40:00,
2013-09-19 13:45:00,75.7,55.2,30.15,SSW,192,1.0,7.0,49,0.00,,CLR,0.00,VWS V14.01,2013-09-19 17:45:00,
2013-09-19 13:50:00,75.9,55.4,30.15,WNW,302,0.0,7.0,49,0.00,,CLR,0.00,VWS V14.01,2013-09-19 17:50:00,
2013-09-19 13:55:00,76.4,54.7,30.15,North,351,0.0,7.0,47,0.00,,CLR,0.00,VWS V14.01,2013-09-19 17:55:00,
2013-09-19 14:00:00,76.6,54.9,30.14,SSW,211,0.0,2.0,47,0.00,,CLR,0.00,VWS V14.01,2013-09-19 18:00:00,
2013-09-19 14:05:00,77.5,54.5,30.15,West,278,3.0,6.0,45,0.00,,CLR,0.00,VWS V14.01,2013-09-19 18:05:00,
2013-09-19 14:10:00,78.1,55.0,30.14,SSW,194,1.0,6.0,45,0.00,,CLR,0.00,VWS V14.01,2013-09-19 18:10:00,
2013-09-19 14:15:00,77.7,54.7,30.14,South,184,3.0,8.0,45,0.00,,CLR,0.00,VWS V14.01,2013-09-19 18:15:00,
2013-09-19 14:20:00,77.0,54.1,30.14,WNW,299,4.0,8.0,45,0.00,,CLR,0.00,VWS V14.01,2013-09-19 18:20:00,
2013-09-19 14:25:00,77.2,54.2,30.14,SW,233,1.0,8.0,45,0.00,,CLR,0.00,VWS V14.01,2013-09-19 18:25:00,
2013-09-19 14:30:00,77.8,54.2,30.13,North,350,5.0,6.0,44,0.00,,CLR,0.00,VWS V14.01,2013-09-19 18:30:00,
2013-09-19 14:35:00,78.1,53.2,30.13,SSW,196,2.0,6.0,42,0.00,,CLR,0.00,VWS V14.01,2013-09-19 18:35:00,
2013-09-19 14:40:00,78.1,53.8,30.13,SSW,205,2.0,6.0,43,0.00,,CLR,0.00,VWS V14.01,2013-09-19 18:40:00,
2013-09-19 14:45:00,78.4,53.4,30.13,SW,236,0.0,6.0,42,0.00,,CLR,0.00,VWS V14.01,2013-09-19 18:45:00,
2013-09-19 14:50:00,78.3,54.6,30.12,SE,125,2.0,6.0,44,0.00,,CLR,0.00,VWS V14.01,2013-09-19 18:50:00,
2013-09-19 14:55:00,77.6,54.0,30.12,WSW,251,0.0,6.0,44,0.00,,CLR,0.00,VWS V14.01,2013-09-19 18:55:00,
2013-09-19 15:00:00,77.8,54.2,30.12,SW,214,4.0,5.0,44,0.00,,CLR,0.00,VWS V14.01,2013-09-19 19:00:00,
2013-09-19 15:05:00,77.4,53.2,30.12,SE,138,1.0,6.0,43,0.00,,CLR,0.00,VWS V14.01,2013-09-19 19:05:00,
2013-09-19 15:10:00,77.2,53.6,30.12,SW,236,2.0,6.0,44,0.00,,CLR,0.00,VWS V14.01,2013-09-19 19:10:00,
2013-09-19 15:15:00,77.8,53.5,30.12,SW,234,1.0,6.0,43,0.00,,CLR,0.00,VWS V14.01,2013-09-19 19:15:00,
2013-09-19 15:20:00,78.1,53.2,30.12,NW,306,0.0,6.0,42,0.00,,CLR,0.00,VWS V14.01,2013-09-19 19:20:00,
2013-09-19 15:25:00,78.4,52.8,30.12,WSW,257,0.0,6.0,41,0.00,,CLR,0.00,VWS V14.01,2013-09-19 19:25:00,
2013-09-19 15:30:00,79.0,53.3,30.12,WNW,288,1.0,3.0,41,0.00,,CLR,0.00,VWS V14.01,2013-09-19 19:30:00,
2013-09-19 15:35:00,78.9,53.2,30.11,SW,225,1.0,4.0,41,0.00,,CLR,0.00,VWS V14.01,2013-09-19 19:35:00,
2013-09-19 15:40:00,78.4,52.8,30.11,WNW,302,5.0,6.0,41,0.00,,CLR,0.00,VWS V14.01,2013-09-19 19:40:00,
2013-09-19 15:45:00,79.0,52.6,30.11,WNW,282,1.0,6.0,40,0.00,,CLR,0.00,VWS V14.01,2013-09-19 19:45:00,
2013-09-19 15:50:00,78.9,52.5,30.11,West,264,0.0,6.0,40,0.00,,CLR,0.00,VWS V14.01,2013-09-19 19:50:00,
2013-09-19 15:55:00,79.1,52.7,30.11,WSW,241,3.0,6.0,40,0.00,,CLR,0.00,VWS V14.01,2013-09-19 19:55:00,
2013-09-19 16:00:00,78.5,52.9,30.11,NNW,328,2.0,4.0,41,0.00,,CLR,0.00,VWS V14.01,2013-09-19 20:00:00,
2013-09-19 16:05:00,78.6,53.0,30.11,West,281,2.0,5.0,41,0.00,,CLR,0.00,VWS V14.01,2013-09-19 20:05:00,
2013-09-19 16:10:00,79.3,52.9,30.11,NW,309,2.0,5.0,40,0.00,,CLR,0.00,VWS V14.01,2013-09-19 20:10:00,
2013-09-19 16:15:00,79.7,53.3,30.11,NNW,346,0.0,5.0,40,0.00,,CLR,0.00,VWS V14.01,2013-09-19 20:15:00,
2013-09-19 16:20:00,80.2,53.0,30.10,North,350,0.0,5.0,39,0.00,,CLR,0.00,VWS V14.01,2013-09-19 20:20:00,
2013-09-19 16:25:00,80.0,52.8,30.10,SSW,198,1.0,5.0,39,0.00,,CLR,0.00,VWS V14.01,2013-09-19 20:25:00,
2013-09-19 16:30:00,79.2,52.8,30.10,SSE,166,1.0,2.0,40,0.00,,CLR,0.00,VWS V14.01,2013-09-19 20:30:00,
2013-09-19 16:36:00,78.6,53.6,30.10,South,184,0.0,3.0,42,0.00,,CLR,0.00,VWS V14.01,2013-09-19 20:36:00,
2013-09-19 16:41:00,78.2,53.9,30.10,WNW,299,0.0,4.0,43,0.00,,CLR,0.00,VWS V14.01,2013-09-19 20:41:00,
2013-09-19 16:46:00,78.2,53.2,30.10,East,101,1.0,4.0,42,0.00,,CLR,0.00,VWS V14.01,2013-09-19 20:46:00,
2013-09-19 16:51:00,78.2,53.9,30.10,SW,227,0.0,4.0,43,0.00,,CLR,0.00,VWS V14.01,2013-09-19 20:51:00,
2013-09-19 16:56:00,78.5,54.2,30.10,NW,324,2.0,5.0,43,0.00,,CLR,0.00,VWS V14.01,2013-09-19 20:56:00,
2013-09-19 17:01:00,79.1,54.1,30.10,NW,326,1.0,3.0,42,0.00,,CLR,0.00,VWS V14.01,2013-09-19 21:01:00,
2013-09-19 17:06:00,79.1,54.1,30.10,WSW,238,0.0,3.0,42,0.00,,CLR,0.00,VWS V14.01,2013-09-19 21:06:00,
2013-09-19 17:11:00,78.9,53.2,30.10,NW,316,0.0,5.0,41,0.00,,CLR,0.00,VWS V14.01,2013-09-19 21:11:00,
2013-09-19 17:16:00,79.0,53.3,30.10,NW,306,0.0,5.0,41,0.00,,CLR,0.00,VWS V14.01,2013-09-19 21:16:00,
2013-09-19 17:21:00,78.9,53.9,30.10,SSE,155,1.0,5.0,42,0.00,,CLR,0.00,VWS V14.01,2013-09-19 21:21:00,
2013-09-19 17:26:00,78.7,53.7,30.10,NW,304,1.0,5.0,42,0.00,,CLR,0.00,VWS V14.01,2013-09-19 21:26:00,
2013-09-19 17:31:00,78.4,52.8,30.10,South,178,0.0,1.0,41,0.00,,CLR,0.00,VWS V14.01,2013-09-19 21:31:00,
2013-09-19 17:36:00,77.7,54.1,30.09,SE,130,1.0,3.0,44,0.00,,CLR,0.00,VWS V14.01,2013-09-19 21:36:00,
2013-09-19 17:41:00,76.4,52.9,30.09,SSE,164,0.0,3.0,44,0.00,,CLR,0.00,VWS V14.01,2013-09-19 21:41:00,
2013-09-19 17:46:00,75.6,53.4,30.09,SSE,165,1.0,3.0,46,0.00,,CLR,0.00,VWS V14.01,2013-09-19 21:46:00,
2013-09-19 17:51:00,75.0,54.0,30.09,SSE,165,0.0,3.0,48,0.00,,CLR,0.00,VWS V14.01,2013-09-19 21:51:00,
2013-09-19 17:56:00,74.4,54.6,30.09,SSW,198,0.0,3.0,50,0.00,,CLR,0.00,VWS V14.01,2013-09-19 21:56:00,
2013-09-19 18:01:00,73.7,56.0,30.09,SSW,198,0.0,0.0,54,0.00,,CLR,0.00,VWS V14.01,2013-09-19 22:01:00,
2013-09-19 18:06:00,73.1,55.5,30.10,SSW,198,0.0,1.0,54,0.00,,CLR,0.00,VWS V14.01,2013-09-19 22:06:00,
2013-09-19 18:11:00,72.5,57.4,30.10,SSW,198,0.0,1.0,59,0.00,,CLR,0.00,VWS V14.01,2013-09-19 22:11:00,
2013-09-19 18:16:00,71.9,57.7,30.10,SSW,198,0.0,1.0,61,0.00,,CLR,0.00,VWS V14.01,2013-09-19 22:16:00,
2013-09-19 18:21:00,71.3,57.6,30.10,SSW,198,0.0,1.0,62,0.00,,CLR,0.00,VWS V14.01,2013-09-19 22:21:00,
2013-09-19 18:26:00,70.6,57.8,30.10,SSW,198,0.0,1.0,64,0.00,,CLR,0.00,VWS V14.01,2013-09-19 22:26:00,
2013-09-19 18:31:00,69.9,58.0,30.10,SSW,198,0.0,0.0,66,0.00,,CLR,0.00,VWS V14.01,2013-09-19 22:31:00,
2013-09-19 18:36:00,69.2,58.2,30.10,SSW,198,0.0,0.0,68,0.00,,CLR,0.00,VWS V14.01,2013-09-19 22:36:00,
2013-09-19 18:41:00,68.5,57.9,30.10,SSW,198,0.0,0.0,69,0.00,,CLR,0.00,VWS V14.01,2013-09-19 22:41:00,
2013-09-19 18:46:00,67.8,58.1,30.10,SSW,198,0.0,0.0,71,0.00,,CLR,0.00,VWS V14.01,2013-09-19 22:46:00,
2013-09-19 18:51:00,67.2,57.9,30.10,SSW,198,0.0,0.0,72,0.00,,CLR,0.00,VWS V14.01,2013-09-19 22:51:00,
2013-09-19 18:56:00,66.5,57.6,30.10,SSW,198,0.0,1.0,73,0.00,,CLR,0.00,VWS V14.01,2013-09-19 22:56:00,
2013-09-19 19:01:00,65.9,57.4,30.10,SSW,198,0.0,0.0,74,0.00,,CLR,0.00,VWS V14.01,2013-09-19 23:01:00,
2013-09-19 19:06:00,65.5,57.4,30.10,SSW,198,0.0,0.0,75,0.00,,CLR,0.00,VWS V14.01,2013-09-19 23:06:00,
2013-09-19 19:11:00,65.1,57.4,30.10,SSW,198,0.0,0.0,76,0.00,,CLR,0.00,VWS V14.01,2013-09-19 23:11:00,
2013-09-19 19:16:00,64.5,57.5,30.10,SSW,198,0.0,1.0,78,0.00,,CLR,0.00,VWS V14.01,2013-09-19 23:16:00,
2013-09-19 19:21:00,63.8,57.2,30.10,SSW,198,0.0,1.0,79,0.00,,CLR,0.00,VWS V14.01,2013-09-19 23:21:00,
2013-09-19 19:26:00,63.3,57.0,30.11,SSW,198,0.0,1.0,80,0.00,,CLR,0.00,VWS V14.01,2013-09-19 23:26:00,
2013-09-19 19:31:00,62.9,57.0,30.11,SSW,198,0.0,0.0,81,0.00,,CLR,0.00,VWS V14.01,2013-09-19 23:31:00,
2013-09-19 19:36:00,62.4,56.8,30.11,SSW,198,0.0,0.0,82,0.00,,CLR,0.00,VWS V14.01,2013-09-19 23:36:00,
2013-09-19 19:41:00,62.1,56.5,30.11,SSW,198,0.0,0.0,82,0.00,,CLR,0.00,VWS V14.01,2013-09-19 23:41:00,
2013-09-19 19:46:00,61.7,56.5,30.11,SSW,198,0.0,0.0,83,0.00,,CLR,0.00,VWS V14.01,2013-09-19 23:46:00,
2013-09-19 19:52:00,61.2,56.0,30.11,SSW,198,0.0,0.0,83,0.00,,CLR,0.00,VWS V14.01,2013-09-19 23:52:00,
2013-09-19 19:57:00,60.8,55.9,30.12,SSW,198,0.0,0.0,84,0.00,,CLR,0.00,VWS V14.01,2013-09-19 23:57:00,
2013-09-19 20:02:00,60.5,55.7,30.11,SSW,198,0.0,0.0,84,0.00,,CLR,0.00,VWS V14.01,2013-09-20 00:02:00,
2013-09-19 20:07:00,60.3,55.8,30.12,SSW,198,0.0,1.0,85,0.00,,CLR,0.00,VWS V14.01,2013-09-20 00:07:00,
2013-09-19 20:12:00,60.0,55.5,30.12,SSW,198,0.0,1.0,85,0.00,,CLR,0.00,VWS V14.01,2013-09-20 00:12:00,
2013-09-19 20:17:00,59.6,55.4,30.12,SSW,198,0.0,1.0,86,0.00,,CLR,0.00,VWS V14.01,2013-09-20 00:17:00,
2013-09-19 20:22:00,59.3,55.1,30.12,SSW,198,0.0,1.0,86,0.00,,CLR,0.00,VWS V14.01,2013-09-20 00:22:00,
2013-09-19 20:27:00,59.1,55.2,30.12,SSW,198,0.0,1.0,87,0.00,,CLR,0.00,VWS V14.01,2013-09-20 00:27:00,
2013-09-19 20:32:00,58.9,55.0,30.12,SSW,198,0.0,0.0,87,0.00,,CLR,0.00,VWS V14.01,2013-09-20 00:32:00,
2013-09-19 20:37:00,58.6,55.1,30.12,SSW,198,0.0,0.0,88,0.00,,CLR,0.00,VWS V14.01,2013-09-20 00:37:00,
2013-09-19 20:42:00,58.4,54.9,30.12,SSW,198,0.0,0.0,88,0.00,,CLR,0.00,VWS V14.01,2013-09-20 00:42:00,
2013-09-19 20:47:00,58.1,54.6,30.12,SSW,198,0.0,0.0,88,0.00,,CLR,0.00,VWS V14.01,2013-09-20 00:47:00,
2013-09-19 20:52:00,58.0,54.8,30.12,SSW,198,0.0,0.0,89,0.00,,CLR,0.00,VWS V14.01,2013-09-20 00:52:00,
2013-09-19 20:57:00,57.8,54.6,30.12,SSW,198,0.0,0.0,89,0.00,,CLR,0.00,VWS V14.01,2013-09-20 00:57:00,
2013-09-19 21:02:00,57.6,54.4,30.12,SSW,198,0.0,0.0,89,0.00,,CLR,0.00,VWS V14.01,2013-09-20 01:02:00,
2013-09-19 21:07:00,57.4,54.2,30.12,SSW,198,0.0,0.0,89,0.00,,CLR,0.00,VWS V14.01,2013-09-20 01:07:00,
2013-09-19 21:12:00,57.1,54.2,30.12,SSW,198,0.0,0.0,90,0.00,,CLR,0.00,VWS V14.01,2013-09-20 01:12:00,
2013-09-19 21:17:00,56.9,54.0,30.12,SSW,198,0.0,0.0,90,0.00,,CLR,0.00,VWS V14.01,2013-09-20 01:17:00,
2013-09-19 21:22:00,56.8,54.2,30.12,SSW,198,0.0,0.0,91,0.00,,CLR,0.00,VWS V14.01,2013-09-20 01:22:00,
2013-09-19 21:27:00,56.5,53.9,30.12,SSW,198,0.0,0.0,91,0.00,,CLR,0.00,VWS V14.01,2013-09-20 01:27:00,
2013-09-19 21:32:00,56.4,53.8,30.12,SSW,198,0.0,0.0,91,0.00,,CLR,0.00,VWS V14.01,2013-09-20 01:32:00,
2013-09-19 21:37:00,56.3,54.0,30.12,SSW,198,0.0,0.0,92,0.00,,CLR,0.00,VWS V14.01,2013-09-20 01:37:00,
2013-09-19 21:42:00,56.2,53.9,30.12,SSW,198,0.0,0.0,92,0.00,,CLR,0.00,VWS V14.01,2013-09-20 01:42:00,
2013-09-19 21:47:00,56.0,53.7,30.12,SSW,198,0.0,0.0,92,0.00,,CLR,0.00,VWS V14.01,2013-09-20 01:47:00,
2013-09-19 21:52:00,55.9,53.6,30.11,SSW,198,0.0,0.0,92,0.00,,CLR,0.00,VWS V14.01,2013-09-20 01:52:00,
2013-09-19 21:57:00,55.8,53.8,30.11,SSW,198,0.0,1.0,93,0.00,,CLR,0.00,VWS V14.01,2013-09-20 01:57:00,
2013-09-19 22:02:00,55.7,53.7,30.11,SE,140,3.0,3.0,93,0.00,,CLR,0.00,VWS V14.01,2013-09-20 02:02:00,
2013-09-19 22:07:00,56.1,54.4,30.12,SE,136,2.0,5.0,94,0.00,,CLR,0.00,VWS V14.01,2013-09-20 02:07:00,
2013-09-19 22:12:00,56.4,54.4,30.12,SE,136,0.0,5.0,93,0.00,,CLR,0.00,VWS V14.01,2013-09-20 02:12:00,
2013-09-19 22:17:00,56.6,54.6,30.11,SE,144,2.0,5.0,93,0.00,,CLR,0.00,VWS V14.01,2013-09-20 02:17:00,
2013-09-19 22:22:00,56.8,54.8,30.11,SSE,151,0.0,5.0,93,0.00,,CLR,0.00,VWS V14.01,2013-09-20 02:22:00,
2013-09-19 22:27:00,57.0,55.0,30.11,SE,135,5.0,7.0,93,0.00,,CLR,0.00,VWS V14.01,2013-09-20 02:27:00,
2013-09-19 22:32:00,57.2,54.9,30.11,SE,135,3.0,5.0,92,0.00,,CLR,0.00,VWS V14.01,2013-09-20 02:32:00,
2013-09-19 22:37:00,57.3,54.7,30.11,SE,128,0.0,5.0,91,0.00,,CLR,0.00,VWS V14.01,2013-09-20 02:37:00,
2013-09-19 22:42:00,57.4,54.8,30.11,SE,140,0.0,5.0,91,0.00,,CLR,0.00,VWS V14.01,2013-09-20 02:42:00,
2013-09-19 22:47:00,57.5,54.6,30.11,SE,140,3.0,5.0,90,0.00,,CLR,0.00,VWS V14.01,2013-09-20 02:47:00,
2013-09-19 22:52:00,57.5,54.6,30.11,SE,140,1.0,5.0,90,0.00,,CLR,0.00,VWS V14.01,2013-09-20 02:52:00,
2013-09-19 22:57:00,57.5,54.6,30.11,SE,140,0.0,5.0,90,0.00,,CLR,0.00,VWS V14.01,2013-09-20 02:57:00,
2013-09-19 23:02:00,57.5,54.6,30.11,SE,134,2.0,2.0,90,0.00,,CLR,0.00,VWS V14.01,2013-09-20 03:02:00,
2013-09-19 23:07:00,57.6,54.7,30.11,SSE,147,0.0,4.0,90,0.00,,CLR,0.00,VWS V14.01,2013-09-20 03:07:00,
2013-09-19 23:12:00,57.6,54.7,30.11,SSE,147,1.0,4.0,90,0.00,,CLR,0.00,VWS V14.01,2013-09-20 03:12:00,
2013-09-19 23:17:00,57.5,54.6,30.11,SSE,147,1.0,4.0,90,0.00,,,0.00,VWS V14.01,2013-09-20 03:17:00,
2013-09-19 23:22:00,57.3,54.4,30.11,SSE,147,2.0,4.0,90,0.00,,,0.00,VWS V14.01,2013-09-20 03:22:00,
2013-09-19 23:27:00,57.0,54.1,30.11,SSE,147,2.0,4.0,90,0.00,,,0.00,VWS V14.01,2013-09-20 03:27:00,
2013-09-19 23:32:00,56.7,54.1,30.11,SSE,147,2.0,3.0,91,0.00,,,0.00,VWS V14.01,2013-09-20 03:32:00,
2013-09-19 23:37:00,56.4,53.8,30.11,SSE,147,0.0,3.0,91,0.00,,,0.00,VWS V14.01,2013-09-20 03:37:00,
2013-09-19 23:42:00,56.2,53.9,30.11,SSE,147,1.0,3.0,92,0.00,,,0.00,VWS V14.01,2013-09-20 03:42:00,
2013-09-19 23:47:00,56.0,53.7,30.10,SSE,147,0.0,3.0,92,0.00,,,0.00,VWS V14.01,2013-09-20 03:47:00,
2013-09-19 23:52:00,55.9,53.9,30.11,SSE,147,1.0,3.0,93,0.00,,,0.00,VWS V14.01,2013-09-20 03:52:00,
2013-09-19 23:57:00,55.8,53.8,30.11,SSE,147,0.0,3.0,93,0.00,,,0.00,VWS V14.01,2013-09-20 03:57:00,